الصفحة الرئيسية
METAR-TAF:

METAR-TAF

مطار :

طرابلس, ليبيا

مطار معيتيقة الدولي

دائرة عرض: 32-54N, خط طول: 13-17E, ارتفاع: 11 متر

مراقبة الطقس الحالي

تاريخ ووقت الإصدار 39 دقيقة قبل الساعة 07:50UTC
ريح 7 عقدة من الجنوب/الجنوب الغربي
درجة الحرارة 15°درجة مئوية
الرطوبة 55%
ضغط 1004 hPa
الرؤية: 7000 متر
غيوم قليلة على ارتفاع 2500 قدم
غيوم متفرقة على ارتفاع 8000 قدم

METAR: HLLM 220750Z 20007KT 7000 FEW025 SCT080 15/06 Q1004

زمن: 10:29 (08:29 UTC)

توقعات

تاريخ ووقت الإصدار 15ساعات و 29 دقيقة قبل الساعة 17:00UTC
التوقعات صالحة من21 الساعة 18 UTC إلى 22 الساعة 18 UTC
ريح 2 عقدةمن اتجاهات متغيرة
الرؤية: 8000 متر
أصبح
من 22 الساعة 02 UTC إلى 22 الساعة 04 UTC
ريح 12 عقدة من الجنوب/الجنوب الشرقي
أصبح
من 22 الساعة 12 UTC إلى 22 الساعة 15 UTC

TAF: HLLM 211700Z 2118/2218 VRB02KT 8000 NSC BECMG 2202/2204 16012KT BECMG 2212/2215 0908KT

أرصاد الطقس والتوقعات من أكثر من 4000 مطار (تقارير الطقس للمطار METAR والتنبؤ بالطقس بالمطارTAF).

المحطات المتاحة هي النقط الصفراء والحمراء على الخريطة.

حرك المؤشر فوق النقطة لمعرفة اسم المحطة.

ثم انقر لمعرفة أرصاد وتوقعات الطقس.

لتغيير الخارطة: اضغط على الأزرار الخضراء مع رمز الصليب الأسود للتكبير. على الزر الأخضر مع شرطة للتصغير، أو على الأسهم الخضراء للخرائط المجاورة.


METAR-TAF: